sensor_id;sensor_type;location;lat;lon;timestamp;P1;durP1;ratioP1;P2;durP2;ratioP2
12906;SDS011;6521;50.498;8.474;2022-09-24T00:02:06;6.03;;;5.10;;
12906;SDS011;6521;50.498;8.474;2022-09-24T00:04:40;6.87;;;5.00;;
12906;SDS011;6521;50.498;8.474;2022-09-24T00:07:11;6.57;;;4.97;;
12906;SDS011;6521;50.498;8.474;2022-09-24T00:09:42;5.97;;;5.00;;
12906;SDS011;6521;50.498;8.474;2022-09-24T00:12:12;5.77;;;5.17;;
12906;SDS011;6521;50.498;8.474;2022-09-24T00:14:43;5.07;;;4.60;;
12906;SDS011;6521;50.498;8.474;2022-09-24T00:17:14;8.50;;;4.80;;
12906;SDS011;6521;50.498;8.474;2022-09-24T00:19:44;6.53;;;4.83;;
12906;SDS011;6521;50.498;8.474;2022-09-24T00:22:15;8.03;;;5.47;;
12906;SDS011;6521;50.498;8.474;2022-09-24T00:24:46;6.30;;;5.50;;
12906;SDS011;6521;50.498;8.474;2022-09-24T00:27:35;7.10;;;5.27;;
12906;SDS011;6521;50.498;8.474;2022-09-24T00:30:06;5.17;;;4.57;;
12906;SDS011;6521;50.498;8.474;2022-09-24T00:32:36;6.90;;;5.03;;
12906;SDS011;6521;50.498;8.474;2022-09-24T00:35:07;5.53;;;4.93;;
12906;SDS011;6521;50.498;8.474;2022-09-24T00:37:38;8.27;;;5.23;;
12906;SDS011;6521;50.498;8.474;2022-09-24T00:40:09;5.80;;;5.10;;
12906;SDS011;6521;50.498;8.474;2022-09-24T00:42:40;6.47;;;5.70;;
12906;SDS011;6521;50.498;8.474;2022-09-24T00:45:11;6.63;;;5.53;;
12906;SDS011;6521;50.498;8.474;2022-09-24T00:47:42;7.43;;;5.53;;
12906;SDS011;6521;50.498;8.474;2022-09-24T00:50:15;7.20;;;5.37;;
12906;SDS011;6521;50.498;8.474;2022-09-24T00:53:08;8.37;;;5.70;;
12906;SDS011;6521;50.498;8.474;2022-09-24T00:55:46;5.83;;;5.23;;
12906;SDS011;6521;50.498;8.474;2022-09-24T00:58:23;6.10;;;5.33;;
12906;SDS011;6521;50.498;8.474;2022-09-24T01:00:58;5.23;;;4.73;;
12906;SDS011;6521;50.498;8.474;2022-09-24T01:03:34;6.73;;;5.23;;
12906;SDS011;6521;50.498;8.474;2022-09-24T01:06:11;7.03;;;5.23;;
12906;SDS011;6521;50.498;8.474;2022-09-24T01:08:42;7.20;;;5.17;;
12906;SDS011;6521;50.498;8.474;2022-09-24T01:31:29;6.70;;;5.90;;
12906;SDS011;6521;50.498;8.474;2022-09-24T01:34:05;8.17;;;6.03;;
12906;SDS011;6521;50.498;8.474;2022-09-24T01:36:38;6.60;;;5.90;;
12906;SDS011;6521;50.498;8.474;2022-09-24T01:39:10;11.70;;;5.40;;
12906;SDS011;6521;50.498;8.474;2022-09-24T01:41:43;6.03;;;5.43;;
12906;SDS011;6521;50.498;8.474;2022-09-24T01:44:15;5.80;;;5.13;;
12906;SDS011;6521;50.498;8.474;2022-09-24T01:46:47;7.17;;;5.33;;
12906;SDS011;6521;50.498;8.474;2022-09-24T01:49:19;5.37;;;4.87;;
12906;SDS011;6521;50.498;8.474;2022-09-24T01:51:51;6.43;;;5.50;;
12906;SDS011;6521;50.498;8.474;2022-09-24T01:54:31;5.87;;;4.97;;
12906;SDS011;6521;50.498;8.474;2022-09-24T01:57:12;6.97;;;5.17;;
12906;SDS011;6521;50.498;8.474;2022-09-24T02:00:00;6.43;;;5.07;;
12906;SDS011;6521;50.498;8.474;2022-09-24T02:08:20;7.50;;;5.23;;
12906;SDS011;6521;50.498;8.474;2022-09-24T02:10:54;4.43;;;4.03;;
12906;SDS011;6521;50.498;8.474;2022-09-24T02:13:32;4.33;;;3.90;;
12906;SDS011;6521;50.498;8.474;2022-09-24T02:16:10;5.23;;;4.30;;
12906;SDS011;6521;50.498;8.474;2022-09-24T02:18:45;6.40;;;4.40;;
12906;SDS011;6521;50.498;8.474;2022-09-24T02:21:18;6.27;;;4.33;;
12906;SDS011;6521;50.498;8.474;2022-09-24T02:24:12;4.23;;;3.83;;
12906;SDS011;6521;50.498;8.474;2022-09-24T02:26:45;3.90;;;3.60;;
12906;SDS011;6521;50.498;8.474;2022-09-24T02:29:16;4.93;;;3.67;;
12906;SDS011;6521;50.498;8.474;2022-09-24T02:31:51;6.47;;;4.00;;
12906;SDS011;6521;50.498;8.474;2022-09-24T02:34:29;4.23;;;3.83;;
12906;SDS011;6521;50.498;8.474;2022-09-24T02:37:05;5.77;;;3.83;;
12906;SDS011;6521;50.498;8.474;2022-09-24T02:39:38;4.67;;;4.00;;
12906;SDS011;6521;50.498;8.474;2022-09-24T02:42:09;9.13;;;3.93;;
12906;SDS011;6521;50.498;8.474;2022-09-24T02:44:43;4.50;;;4.10;;
12906;SDS011;6521;50.498;8.474;2022-09-24T02:47:14;6.30;;;4.20;;
12906;SDS011;6521;50.498;8.474;2022-09-24T02:49:45;4.17;;;3.77;;
12906;SDS011;6521;50.498;8.474;2022-09-24T02:52:15;5.47;;;3.87;;
12906;SDS011;6521;50.498;8.474;2022-09-24T02:54:46;3.90;;;3.60;;
12906;SDS011;6521;50.498;8.474;2022-09-24T02:57:17;4.77;;;3.60;;
12906;SDS011;6521;50.498;8.474;2022-09-24T02:59:48;4.00;;;3.70;;
12906;SDS011;6521;50.498;8.474;2022-09-24T03:02:18;4.40;;;4.00;;
12906;SDS011;6521;50.498;8.474;2022-09-24T03:04:49;5.90;;;3.70;;
12906;SDS011;6521;50.498;8.474;2022-09-24T03:07:21;4.67;;;3.43;;
12906;SDS011;6521;50.498;8.474;2022-09-24T03:09:51;5.43;;;3.70;;
12906;SDS011;6521;50.498;8.474;2022-09-24T03:12:22;4.57;;;4.13;;
12906;SDS011;6521;50.498;8.474;2022-09-24T03:14:53;5.67;;;4.93;;
12906;SDS011;6521;50.498;8.474;2022-09-24T03:17:23;6.03;;;4.67;;
12906;SDS011;6521;50.498;8.474;2022-09-24T03:19:54;5.17;;;4.67;;
12906;SDS011;6521;50.498;8.474;2022-09-24T03:22:25;5.10;;;4.60;;
12906;SDS011;6521;50.498;8.474;2022-09-24T03:24:55;6.80;;;5.30;;
12906;SDS011;6521;50.498;8.474;2022-09-24T03:27:26;5.17;;;4.67;;
12906;SDS011;6521;50.498;8.474;2022-09-24T03:29:57;5.60;;;4.50;;
12906;SDS011;6521;50.498;8.474;2022-09-24T03:32:46;7.53;;;5.07;;
12906;SDS011;6521;50.498;8.474;2022-09-24T03:35:17;5.20;;;4.70;;
12906;SDS011;6521;50.498;8.474;2022-09-24T03:37:48;7.67;;;4.57;;
12906;SDS011;6521;50.498;8.474;2022-09-24T03:40:19;5.03;;;4.53;;
12906;SDS011;6521;50.498;8.474;2022-09-24T03:42:50;5.40;;;4.63;;
12906;SDS011;6521;50.498;8.474;2022-09-24T03:45:20;5.20;;;4.70;;
12906;SDS011;6521;50.498;8.474;2022-09-24T03:47:51;6.20;;;4.97;;
12906;SDS011;6521;50.498;8.474;2022-09-24T03:50:22;5.93;;;4.30;;
12906;SDS011;6521;50.498;8.474;2022-09-24T03:52:52;9.33;;;4.60;;
12906;SDS011;6521;50.498;8.474;2022-09-24T03:55:23;5.00;;;4.40;;
12906;SDS011;6521;50.498;8.474;2022-09-24T03:57:53;4.93;;;4.50;;
12906;SDS011;6521;50.498;8.474;2022-09-24T04:00:24;4.37;;;3.97;;
12906;SDS011;6521;50.498;8.474;2022-09-24T04:02:56;5.07;;;4.57;;
12906;SDS011;6521;50.498;8.474;2022-09-24T04:05:27;5.30;;;4.43;;
12906;SDS011;6521;50.498;8.474;2022-09-24T04:07:59;5.13;;;4.57;;
12906;SDS011;6521;50.498;8.474;2022-09-24T04:10:31;5.50;;;4.50;;
12906;SDS011;6521;50.498;8.474;2022-09-24T04:13:02;8.80;;;4.20;;
12906;SDS011;6521;50.498;8.474;2022-09-24T04:15:33;5.60;;;4.23;;
12906;SDS011;6521;50.498;8.474;2022-09-24T04:18:03;5.37;;;4.10;;
12906;SDS011;6521;50.498;8.474;2022-09-24T04:20:34;4.93;;;4.43;;
12906;SDS011;6521;50.498;8.474;2022-09-24T04:23:06;10.57;;;7.57;;
12906;SDS011;6521;50.498;8.474;2022-09-24T04:25:37;8.63;;;7.50;;
12906;SDS011;6521;50.498;8.474;2022-09-24T04:28:09;7.50;;;6.80;;
12906;SDS011;6521;50.498;8.474;2022-09-24T04:30:41;7.70;;;5.00;;
12906;SDS011;6521;50.498;8.474;2022-09-24T04:33:12;6.07;;;5.07;;
12906;SDS011;6521;50.498;8.474;2022-09-24T04:35:44;5.87;;;5.27;;
12906;SDS011;6521;50.498;8.474;2022-09-24T04:38:15;5.40;;;4.90;;
12906;SDS011;6521;50.498;8.474;2022-09-24T04:40:46;9.80;;;5.60;;
12906;SDS011;6521;50.498;8.474;2022-09-24T04:43:17;8.57;;;6.10;;
12906;SDS011;6521;50.498;8.474;2022-09-24T04:45:48;5.50;;;5.00;;
12906;SDS011;6521;50.498;8.474;2022-09-24T04:48:19;6.77;;;6.00;;
12906;SDS011;6521;50.498;8.474;2022-09-24T04:50:49;6.83;;;5.57;;
12906;SDS011;6521;50.498;8.474;2022-09-24T04:53:20;7.40;;;4.87;;
12906;SDS011;6521;50.498;8.474;2022-09-24T04:55:52;6.60;;;4.63;;
12906;SDS011;6521;50.498;8.474;2022-09-24T04:58:23;4.73;;;4.30;;
12906;SDS011;6521;50.498;8.474;2022-09-24T05:00:53;5.53;;;4.80;;
12906;SDS011;6521;50.498;8.474;2022-09-24T05:03:24;15.47;;;5.40;;
12906;SDS011;6521;50.498;8.474;2022-09-24T05:05:54;12.47;;;5.80;;
12906;SDS011;6521;50.498;8.474;2022-09-24T05:08:25;7.97;;;4.97;;
12906;SDS011;6521;50.498;8.474;2022-09-24T05:10:56;13.77;;;5.40;;
12906;SDS011;6521;50.498;8.474;2022-09-24T05:13:27;8.40;;;4.70;;
12906;SDS011;6521;50.498;8.474;2022-09-24T05:15:58;12.87;;;4.77;;
12906;SDS011;6521;50.498;8.474;2022-09-24T05:18:30;8.47;;;5.43;;
12906;SDS011;6521;50.498;8.474;2022-09-24T05:21:00;6.70;;;4.67;;
12906;SDS011;6521;50.498;8.474;2022-09-24T05:23:31;15.23;;;4.83;;
12906;SDS011;6521;50.498;8.474;2022-09-24T05:26:02;5.00;;;4.43;;
12906;SDS011;6521;50.498;8.474;2022-09-24T05:28:51;6.73;;;4.93;;
12906;SDS011;6521;50.498;8.474;2022-09-24T05:31:22;13.83;;;5.30;;
12906;SDS011;6521;50.498;8.474;2022-09-24T05:33:52;5.70;;;5.20;;
12906;SDS011;6521;50.498;8.474;2022-09-24T05:36:23;8.43;;;5.50;;
12906;SDS011;6521;50.498;8.474;2022-09-24T05:38:56;10.57;;;5.00;;
12906;SDS011;6521;50.498;8.474;2022-09-24T05:41:26;6.43;;;4.90;;
12906;SDS011;6521;50.498;8.474;2022-09-24T05:43:57;8.80;;;5.03;;
12906;SDS011;6521;50.498;8.474;2022-09-24T05:46:28;6.27;;;5.10;;
12906;SDS011;6521;50.498;8.474;2022-09-24T05:48:59;5.10;;;4.60;;
12906;SDS011;6521;50.498;8.474;2022-09-24T05:51:30;7.07;;;4.60;;
12906;SDS011;6521;50.498;8.474;2022-09-24T05:54:00;8.93;;;4.50;;
12906;SDS011;6521;50.498;8.474;2022-09-24T05:56:31;5.43;;;4.93;;
12906;SDS011;6521;50.498;8.474;2022-09-24T05:59:02;7.20;;;5.47;;
12906;SDS011;6521;50.498;8.474;2022-09-24T06:01:33;6.03;;;4.33;;
12906;SDS011;6521;50.498;8.474;2022-09-24T06:04:04;5.10;;;4.60;;
12906;SDS011;6521;50.498;8.474;2022-09-24T06:06:34;6.57;;;5.40;;
12906;SDS011;6521;50.498;8.474;2022-09-24T06:09:05;5.30;;;4.80;;
12906;SDS011;6521;50.498;8.474;2022-09-24T06:11:37;5.90;;;5.00;;
12906;SDS011;6521;50.498;8.474;2022-09-24T06:14:08;8.57;;;5.50;;
12906;SDS011;6521;50.498;8.474;2022-09-24T06:16:40;5.70;;;5.20;;
12906;SDS011;6521;50.498;8.474;2022-09-24T06:19:11;6.40;;;4.90;;
12906;SDS011;6521;50.498;8.474;2022-09-24T06:21:41;10.90;;;5.90;;
12906;SDS011;6521;50.498;8.474;2022-09-24T06:24:12;8.50;;;5.70;;
12906;SDS011;6521;50.498;8.474;2022-09-24T06:26:42;8.73;;;5.37;;
12906;SDS011;6521;50.498;8.474;2022-09-24T06:29:13;7.20;;;5.87;;
12906;SDS011;6521;50.498;8.474;2022-09-24T06:31:44;7.43;;;6.53;;
12906;SDS011;6521;50.498;8.474;2022-09-24T06:34:16;9.90;;;5.40;;
12906;SDS011;6521;50.498;8.474;2022-09-24T06:36:46;8.30;;;5.60;;
12906;SDS011;6521;50.498;8.474;2022-09-24T06:39:17;14.23;;;5.97;;
12906;SDS011;6521;50.498;8.474;2022-09-24T06:41:48;6.30;;;4.93;;
12906;SDS011;6521;50.498;8.474;2022-09-24T06:44:20;8.83;;;5.20;;
12906;SDS011;6521;50.498;8.474;2022-09-24T06:46:51;6.27;;;4.63;;
12906;SDS011;6521;50.498;8.474;2022-09-24T06:49:22;4.90;;;4.40;;
12906;SDS011;6521;50.498;8.474;2022-09-24T06:51:52;5.27;;;4.13;;
12906;SDS011;6521;50.498;8.474;2022-09-24T06:54:23;6.77;;;4.80;;
12906;SDS011;6521;50.498;8.474;2022-09-24T06:56:54;6.00;;;4.20;;
12906;SDS011;6521;50.498;8.474;2022-09-24T06:59:25;7.37;;;4.77;;
12906;SDS011;6521;50.498;8.474;2022-09-24T07:01:56;5.20;;;4.70;;
12906;SDS011;6521;50.498;8.474;2022-09-24T07:04:28;5.70;;;4.77;;
12906;SDS011;6521;50.498;8.474;2022-09-24T07:06:59;9.17;;;4.80;;
12906;SDS011;6521;50.498;8.474;2022-09-24T07:09:48;6.87;;;5.20;;
12906;SDS011;6521;50.498;8.474;2022-09-24T07:12:19;6.17;;;4.80;;
12906;SDS011;6521;50.498;8.474;2022-09-24T07:14:49;5.77;;;4.77;;
12906;SDS011;6521;50.498;8.474;2022-09-24T07:17:20;5.03;;;4.53;;
12906;SDS011;6521;50.498;8.474;2022-09-24T07:19:51;6.40;;;5.10;;
12906;SDS011;6521;50.498;8.474;2022-09-24T07:22:24;5.33;;;4.20;;
12906;SDS011;6521;50.498;8.474;2022-09-24T07:28:56;6.37;;;4.83;;
12906;SDS011;6521;50.498;8.474;2022-09-24T07:31:28;6.30;;;5.03;;
12906;SDS011;6521;50.498;8.474;2022-09-24T07:33:59;5.50;;;4.97;;
12906;SDS011;6521;50.498;8.474;2022-09-24T07:36:29;7.13;;;5.63;;
12906;SDS011;6521;50.498;8.474;2022-09-24T07:39:00;6.53;;;5.30;;
12906;SDS011;6521;50.498;8.474;2022-09-24T07:41:31;7.87;;;5.00;;
12906;SDS011;6521;50.498;8.474;2022-09-24T07:44:03;5.50;;;4.97;;
12906;SDS011;6521;50.498;8.474;2022-09-24T07:46:34;10.07;;;4.80;;
12906;SDS011;6521;50.498;8.474;2022-09-24T07:49:05;10.23;;;5.23;;
12906;SDS011;6521;50.498;8.474;2022-09-24T07:51:35;8.73;;;5.47;;
12906;SDS011;6521;50.498;8.474;2022-09-24T07:54:06;6.07;;;5.47;;
12906;SDS011;6521;50.498;8.474;2022-09-24T07:56:37;7.40;;;5.07;;
12906;SDS011;6521;50.498;8.474;2022-09-24T07:59:07;5.60;;;5.10;;
12906;SDS011;6521;50.498;8.474;2022-09-24T08:01:40;9.90;;;5.13;;
12906;SDS011;6521;50.498;8.474;2022-09-24T08:04:11;11.97;;;5.23;;
12906;SDS011;6521;50.498;8.474;2022-09-24T08:06:41;6.80;;;5.17;;
12906;SDS011;6521;50.498;8.474;2022-09-24T08:09:13;7.87;;;4.90;;
12906;SDS011;6521;50.498;8.474;2022-09-24T08:11:47;8.57;;;5.40;;
12906;SDS011;6521;50.498;8.474;2022-09-24T08:14:19;5.47;;;4.90;;
12906;SDS011;6521;50.498;8.474;2022-09-24T08:16:49;7.75;;;5.22;;
12906;SDS011;6521;50.498;8.474;2022-09-24T08:19:20;6.55;;;4.22;;
12906;SDS011;6521;50.498;8.474;2022-09-24T08:21:51;6.03;;;4.80;;
12906;SDS011;6521;50.498;8.474;2022-09-24T08:24:23;9.33;;;4.93;;
12906;SDS011;6521;50.498;8.474;2022-09-24T08:26:53;5.78;;;4.68;;
12906;SDS011;6521;50.498;8.474;2022-09-24T08:29:24;4.93;;;4.40;;
12906;SDS011;6521;50.498;8.474;2022-09-24T08:31:54;5.47;;;4.35;;
12906;SDS011;6521;50.498;8.474;2022-09-24T08:34:25;6.00;;;4.78;;
12906;SDS011;6521;50.498;8.474;2022-09-24T08:36:56;5.63;;;4.10;;
12906;SDS011;6521;50.498;8.474;2022-09-24T08:39:26;6.55;;;4.25;;
12906;SDS011;6521;50.498;8.474;2022-09-24T08:42:01;5.50;;;4.30;;
12906;SDS011;6521;50.498;8.474;2022-09-24T08:47:36;4.85;;;4.35;;
12906;SDS011;6521;50.498;8.474;2022-09-24T08:50:28;4.93;;;4.43;;
12906;SDS011;6521;50.498;8.474;2022-09-24T08:53:17;4.93;;;4.10;;
12906;SDS011;6521;50.498;8.474;2022-09-24T08:55:53;6.65;;;4.40;;
12906;SDS011;6521;50.498;8.474;2022-09-24T09:01:04;5.32;;;4.13;;
12906;SDS011;6521;50.498;8.474;2022-09-24T09:03:53;5.72;;;4.43;;
12906;SDS011;6521;50.498;8.474;2022-09-24T09:06:44;4.90;;;4.35;;
12906;SDS011;6521;50.498;8.474;2022-09-24T09:09:24;9.52;;;4.78;;
12906;SDS011;6521;50.498;8.474;2022-09-24T09:12:04;10.55;;;5.50;;
12906;SDS011;6521;50.498;8.474;2022-09-24T09:14:49;9.25;;;4.90;;
12906;SDS011;6521;50.498;8.474;2022-09-24T09:19:55;4.80;;;4.40;;
12906;SDS011;6521;50.498;8.474;2022-09-24T09:22:28;5.68;;;4.95;;
12906;SDS011;6521;50.498;8.474;2022-09-24T09:25:13;6.47;;;4.50;;
12906;SDS011;6521;50.498;8.474;2022-09-24T09:28:13;6.45;;;4.53;;
12906;SDS011;6521;50.498;8.474;2022-09-24T09:36:44;6.57;;;4.13;;
12906;SDS011;6521;50.498;8.474;2022-09-24T09:39:31;7.68;;;4.57;;
12906;SDS011;6521;50.498;8.474;2022-09-24T09:42:30;7.65;;;4.60;;
12906;SDS011;6521;50.498;8.474;2022-09-24T09:47:57;4.78;;;3.60;;
12906;SDS011;6521;50.498;8.474;2022-09-24T09:50:35;7.18;;;3.65;;
12906;SDS011;6521;50.498;8.474;2022-09-24T09:55:56;4.70;;;3.72;;
12906;SDS011;6521;50.498;8.474;2022-09-24T09:58:30;7.43;;;3.35;;
12906;SDS011;6521;50.498;8.474;2022-09-24T10:01:06;5.30;;;3.63;;
12906;SDS011;6521;50.498;8.474;2022-09-24T10:06:20;10.38;;;3.65;;
12906;SDS011;6521;50.498;8.474;2022-09-24T10:09:20;3.88;;;2.90;;
12906;SDS011;6521;50.498;8.474;2022-09-24T10:11:51;6.78;;;3.70;;
12906;SDS011;6521;50.498;8.474;2022-09-24T10:14:22;4.82;;;3.28;;
12906;SDS011;6521;50.498;8.474;2022-09-24T10:16:53;5.93;;;3.70;;
12906;SDS011;6521;50.498;8.474;2022-09-24T10:19:25;5.63;;;3.40;;
12906;SDS011;6521;50.498;8.474;2022-09-24T10:21:57;3.63;;;3.25;;
12906;SDS011;6521;50.498;8.474;2022-09-24T10:24:39;3.85;;;3.13;;
12906;SDS011;6521;50.498;8.474;2022-09-24T10:27:12;5.72;;;3.33;;
12906;SDS011;6521;50.498;8.474;2022-09-24T10:29:50;3.42;;;3.13;;
12906;SDS011;6521;50.498;8.474;2022-09-24T10:32:42;9.43;;;2.80;;
12906;SDS011;6521;50.498;8.474;2022-09-24T10:35:24;3.58;;;2.97;;
12906;SDS011;6521;50.498;8.474;2022-09-24T10:37:57;3.50;;;3.10;;
12906;SDS011;6521;50.498;8.474;2022-09-24T10:40:30;3.00;;;2.78;;
12906;SDS011;6521;50.498;8.474;2022-09-24T10:43:13;5.47;;;2.95;;
12906;SDS011;6521;50.498;8.474;2022-09-24T10:48:43;7.90;;;3.10;;
12906;SDS011;6521;50.498;8.474;2022-09-24T10:51:25;3.65;;;2.97;;
12906;SDS011;6521;50.498;8.474;2022-09-24T10:54:17;3.30;;;3.00;;
12906;SDS011;6521;50.498;8.474;2022-09-24T10:57:05;3.75;;;2.10;;
12906;SDS011;6521;50.498;8.474;2022-09-24T11:05:36;3.58;;;2.33;;
12906;SDS011;6521;50.498;8.474;2022-09-24T11:08:16;4.38;;;2.50;;
12906;SDS011;6521;50.498;8.474;2022-09-24T11:16:28;4.75;;;3.00;;
12906;SDS011;6521;50.498;8.474;2022-09-24T11:30:42;5.10;;;2.80;;
12906;SDS011;6521;50.498;8.474;2022-09-24T11:36:26;7.55;;;3.28;;
12906;SDS011;6521;50.498;8.474;2022-09-24T11:47:33;6.55;;;3.05;;
12906;SDS011;6521;50.498;8.474;2022-09-24T11:50:49;7.43;;;3.22;;
12906;SDS011;6521;50.498;8.474;2022-09-24T11:56:15;7.72;;;3.20;;
12906;SDS011;6521;50.498;8.474;2022-09-24T11:58:52;4.40;;;3.72;;
12906;SDS011;6521;50.498;8.474;2022-09-24T12:01:33;3.53;;;3.17;;
12906;SDS011;6521;50.498;8.474;2022-09-24T12:04:16;4.18;;;3.30;;
12906;SDS011;6521;50.498;8.474;2022-09-24T12:06:55;3.60;;;3.30;;
12906;SDS011;6521;50.498;8.474;2022-09-24T12:09:34;6.20;;;3.85;;
12906;SDS011;6521;50.498;8.474;2022-09-24T12:12:13;11.32;;;4.38;;
12906;SDS011;6521;50.498;8.474;2022-09-24T12:14:57;7.25;;;3.90;;
12906;SDS011;6521;50.498;8.474;2022-09-24T12:17:51;4.88;;;3.45;;
12906;SDS011;6521;50.498;8.474;2022-09-24T12:20:28;4.82;;;3.90;;
12906;SDS011;6521;50.498;8.474;2022-09-24T12:23:05;5.35;;;3.90;;
12906;SDS011;6521;50.498;8.474;2022-09-24T12:25:41;5.00;;;3.88;;
12906;SDS011;6521;50.498;8.474;2022-09-24T12:28:19;4.82;;;3.97;;
12906;SDS011;6521;50.498;8.474;2022-09-24T12:31:15;9.30;;;4.10;;
12906;SDS011;6521;50.498;8.474;2022-09-24T12:37:12;10.25;;;4.45;;
12906;SDS011;6521;50.498;8.474;2022-09-24T12:40:30;6.30;;;3.80;;
12906;SDS011;6521;50.498;8.474;2022-09-24T12:42:47;4.30;;;3.47;;
12906;SDS011;6521;50.498;8.474;2022-09-24T12:45:21;7.13;;;4.05;;
12906;SDS011;6521;50.498;8.474;2022-09-24T12:47:54;4.32;;;3.53;;
12906;SDS011;6521;50.498;8.474;2022-09-24T12:50:31;9.45;;;3.80;;
12906;SDS011;6521;50.498;8.474;2022-09-24T12:53:17;5.60;;;3.95;;
12906;SDS011;6521;50.498;8.474;2022-09-24T12:56:00;5.35;;;3.42;;
12906;SDS011;6521;50.498;8.474;2022-09-24T12:58:51;7.88;;;3.60;;
12906;SDS011;6521;50.498;8.474;2022-09-24T13:04:23;3.65;;;3.30;;
12906;SDS011;6521;50.498;8.474;2022-09-24T13:06:56;4.05;;;3.63;;
12906;SDS011;6521;50.498;8.474;2022-09-24T13:09:32;4.35;;;3.83;;
12906;SDS011;6521;50.498;8.474;2022-09-24T13:14:59;6.38;;;3.80;;
12906;SDS011;6521;50.498;8.474;2022-09-24T13:17:33;5.05;;;3.80;;
12906;SDS011;6521;50.498;8.474;2022-09-24T13:20:23;6.10;;;4.03;;
12906;SDS011;6521;50.498;8.474;2022-09-24T13:22:58;4.75;;;3.90;;
12906;SDS011;6521;50.498;8.474;2022-09-24T13:25:53;5.53;;;4.25;;
12906;SDS011;6521;50.498;8.474;2022-09-24T13:28:51;7.32;;;3.95;;
12906;SDS011;6521;50.498;8.474;2022-09-24T13:45:27;3.97;;;3.30;;
12906;SDS011;6521;50.498;8.474;2022-09-24T13:48:44;7.55;;;3.67;;
12906;SDS011;6521;50.498;8.474;2022-09-24T13:50:54;10.02;;;3.72;;
12906;SDS011;6521;50.498;8.474;2022-09-24T13:53:30;8.30;;;4.00;;
12906;SDS011;6521;50.498;8.474;2022-09-24T13:56:13;9.43;;;3.00;;
12906;SDS011;6521;50.498;8.474;2022-09-24T13:58:46;3.30;;;3.00;;
12906;SDS011;6521;50.498;8.474;2022-09-24T14:01:27;3.50;;;3.17;;
12906;SDS011;6521;50.498;8.474;2022-09-24T14:04:00;3.45;;;3.15;;
12906;SDS011;6521;50.498;8.474;2022-09-24T14:09:29;4.97;;;2.83;;
12906;SDS011;6521;50.498;8.474;2022-09-24T14:12:11;4.40;;;3.00;;
12906;SDS011;6521;50.498;8.474;2022-09-24T14:14:45;10.23;;;3.05;;
12906;SDS011;6521;50.498;8.474;2022-09-24T14:17:20;4.00;;;2.83;;
12906;SDS011;6521;50.498;8.474;2022-09-24T14:19:54;4.55;;;3.20;;
12906;SDS011;6521;50.498;8.474;2022-09-24T14:22:28;6.97;;;3.10;;
12906;SDS011;6521;50.498;8.474;2022-09-24T14:25:06;4.55;;;2.92;;
12906;SDS011;6521;50.498;8.474;2022-09-24T14:27:40;5.82;;;3.20;;
12906;SDS011;6521;50.498;8.474;2022-09-24T14:30:32;5.55;;;3.13;;
12906;SDS011;6521;50.498;8.474;2022-09-24T14:33:11;6.30;;;3.20;;
12906;SDS011;6521;50.498;8.474;2022-09-24T14:35:45;4.03;;;2.88;;
12906;SDS011;6521;50.498;8.474;2022-09-24T14:38:24;7.47;;;2.80;;
12906;SDS011;6521;50.498;8.474;2022-09-24T14:46:55;4.70;;;2.75;;
12906;SDS011;6521;50.498;8.474;2022-09-24T14:49:43;5.13;;;2.72;;
12906;SDS011;6521;50.498;8.474;2022-09-24T14:55:11;4.10;;;2.83;;
12906;SDS011;6521;50.498;8.474;2022-09-24T14:57:48;5.38;;;3.83;;
12906;SDS011;6521;50.498;8.474;2022-09-24T15:00:26;5.50;;;3.65;;
12906;SDS011;6521;50.498;8.474;2022-09-24T15:03:10;7.93;;;4.32;;
12906;SDS011;6521;50.498;8.474;2022-09-24T15:05:43;8.02;;;3.38;;
12906;SDS011;6521;50.498;8.474;2022-09-24T15:10:55;6.00;;;4.20;;
12906;SDS011;6521;50.498;8.474;2022-09-24T15:13:34;5.45;;;3.70;;
12906;SDS011;6521;50.498;8.474;2022-09-24T15:16:16;5.97;;;3.53;;
12906;SDS011;6521;50.498;8.474;2022-09-24T15:18:57;3.47;;;3.05;;
12906;SDS011;6521;50.498;8.474;2022-09-24T15:21:28;6.60;;;3.30;;
12906;SDS011;6521;50.498;8.474;2022-09-24T15:23:59;8.88;;;4.18;;
12906;SDS011;6521;50.498;8.474;2022-09-24T15:26:30;4.93;;;4.05;;
12906;SDS011;6521;50.498;8.474;2022-09-24T15:29:03;7.13;;;3.80;;
12906;SDS011;6521;50.498;8.474;2022-09-24T15:31:36;5.78;;;4.05;;
12906;SDS011;6521;50.498;8.474;2022-09-24T15:34:07;6.03;;;4.00;;
12906;SDS011;6521;50.498;8.474;2022-09-24T15:36:37;5.28;;;3.65;;
12906;SDS011;6521;50.498;8.474;2022-09-24T15:39:09;4.53;;;3.78;;
12906;SDS011;6521;50.498;8.474;2022-09-24T15:41:40;4.60;;;3.47;;
12906;SDS011;6521;50.498;8.474;2022-09-24T15:44:20;5.97;;;4.43;;
12906;SDS011;6521;50.498;8.474;2022-09-24T15:46:53;5.53;;;4.50;;
12906;SDS011;6521;50.498;8.474;2022-09-24T15:49:23;5.05;;;4.20;;
12906;SDS011;6521;50.498;8.474;2022-09-24T15:51:59;5.72;;;4.00;;
12906;SDS011;6521;50.498;8.474;2022-09-24T15:54:38;9.02;;;4.30;;
12906;SDS011;6521;50.498;8.474;2022-09-24T15:57:10;6.82;;;4.03;;
12906;SDS011;6521;50.498;8.474;2022-09-24T15:59:41;6.68;;;3.75;;
12906;SDS011;6521;50.498;8.474;2022-09-24T16:02:16;8.27;;;3.97;;
12906;SDS011;6521;50.498;8.474;2022-09-24T16:04:51;5.60;;;4.03;;
12906;SDS011;6521;50.498;8.474;2022-09-24T16:07:22;9.20;;;3.92;;
12906;SDS011;6521;50.498;8.474;2022-09-24T16:09:52;5.28;;;3.25;;
12906;SDS011;6521;50.498;8.474;2022-09-24T16:12:23;5.47;;;3.65;;
12906;SDS011;6521;50.498;8.474;2022-09-24T16:14:57;9.30;;;4.13;;
12906;SDS011;6521;50.498;8.474;2022-09-24T16:17:29;6.65;;;3.78;;
12906;SDS011;6521;50.498;8.474;2022-09-24T16:20:00;5.68;;;3.50;;
12906;SDS011;6521;50.498;8.474;2022-09-24T16:22:31;5.30;;;4.32;;
12906;SDS011;6521;50.498;8.474;2022-09-24T16:25:02;5.63;;;3.85;;
12906;SDS011;6521;50.498;8.474;2022-09-24T16:27:33;4.82;;;4.32;;
12906;SDS011;6521;50.498;8.474;2022-09-24T16:30:04;4.55;;;3.70;;
12906;SDS011;6521;50.498;8.474;2022-09-24T16:32:36;5.03;;;3.95;;
12906;SDS011;6521;50.498;8.474;2022-09-24T16:35:07;7.32;;;4.18;;
12906;SDS011;6521;50.498;8.474;2022-09-24T16:37:40;9.00;;;4.78;;
12906;SDS011;6521;50.498;8.474;2022-09-24T16:40:10;5.20;;;4.43;;
12906;SDS011;6521;50.498;8.474;2022-09-24T16:42:41;7.82;;;4.85;;
12906;SDS011;6521;50.498;8.474;2022-09-24T16:45:12;5.45;;;4.20;;
12906;SDS011;6521;50.498;8.474;2022-09-24T16:47:43;7.65;;;4.20;;
12906;SDS011;6521;50.498;8.474;2022-09-24T16:50:13;11.30;;;4.28;;
12906;SDS011;6521;50.498;8.474;2022-09-24T16:52:45;5.10;;;3.53;;
12906;SDS011;6521;50.498;8.474;2022-09-24T16:55:18;4.88;;;3.92;;
12906;SDS011;6521;50.498;8.474;2022-09-24T16:57:49;5.53;;;4.07;;
12906;SDS011;6521;50.498;8.474;2022-09-24T17:00:21;13.35;;;5.30;;
12906;SDS011;6521;50.498;8.474;2022-09-24T17:02:51;14.43;;;6.50;;
12906;SDS011;6521;50.498;8.474;2022-09-24T17:05:22;9.30;;;6.20;;
12906;SDS011;6521;50.498;8.474;2022-09-24T17:07:52;20.02;;;6.88;;
12906;SDS011;6521;50.498;8.474;2022-09-24T17:10:23;8.38;;;5.53;;
12906;SDS011;6521;50.498;8.474;2022-09-24T17:12:54;5.78;;;5.18;;
12906;SDS011;6521;50.498;8.474;2022-09-24T17:15:24;5.25;;;4.25;;
12906;SDS011;6521;50.498;8.474;2022-09-24T17:17:55;4.35;;;3.92;;
12906;SDS011;6521;50.498;8.474;2022-09-24T17:20:26;7.95;;;3.97;;
12906;SDS011;6521;50.498;8.474;2022-09-24T17:22:56;5.13;;;4.28;;
12906;SDS011;6521;50.498;8.474;2022-09-24T17:25:27;4.88;;;4.32;;
12906;SDS011;6521;50.498;8.474;2022-09-24T17:27:58;11.15;;;7.18;;
12906;SDS011;6521;50.498;8.474;2022-09-24T17:30:28;10.32;;;5.65;;
12906;SDS011;6521;50.498;8.474;2022-09-24T17:32:59;12.68;;;6.63;;
12906;SDS011;6521;50.498;8.474;2022-09-24T17:35:30;7.78;;;5.78;;
12906;SDS011;6521;50.498;8.474;2022-09-24T17:38:01;6.60;;;5.90;;
12906;SDS011;6521;50.498;8.474;2022-09-24T17:40:31;8.18;;;6.50;;
12906;SDS011;6521;50.498;8.474;2022-09-24T17:43:02;9.00;;;6.32;;
12906;SDS011;6521;50.498;8.474;2022-09-24T17:45:33;9.27;;;7.55;;
12906;SDS011;6521;50.498;8.474;2022-09-24T17:48:04;9.10;;;6.70;;
12906;SDS011;6521;50.498;8.474;2022-09-24T17:50:35;9.48;;;6.25;;
12906;SDS011;6521;50.498;8.474;2022-09-24T17:53:06;8.50;;;5.38;;
12906;SDS011;6521;50.498;8.474;2022-09-24T17:55:36;9.48;;;6.25;;